FFT1550 KATL-KJAX
Flight info
| Callsign | FFT1550 |
|---|---|
| Flight time | N/A |
| Altitude | 23000 |
| Route | VRSTY3 NOKIE DUCHY OHDEA2 |
| Aircraft | A21N/M-SDE2E3FGHIRWXY/LB1 |
Departure
| Time | 2026-04-30 18:56 |
|---|---|
| Airport | Hartsfield Jackson Atlanta International Airport (KATL) |
Arrival
| Time | N/A |
|---|---|
| Airport | Jacksonville International Airport (KJAX) |
| Time | Latitude | Longitude | Altitude | Speed | Heading |
|---|---|---|---|---|---|
| 2026-04-30 18:41 | 33.63744 | -84.42647 | 1023 ft | 0 kts | 91° |
| 2026-04-30 18:45 | 33.63744 | -84.42653 | 1023 ft | 2 kts | 91° |
| 2026-04-30 18:45 | 33.63744 | -84.42671 | 1023 ft | 2 kts | 90° |
| 2026-04-30 18:45 | 33.63744 | -84.42690 | 1023 ft | 2 kts | 91° |
| 2026-04-30 18:46 | 33.63744 | -84.42708 | 1023 ft | 2 kts | 95° |
| 2026-04-30 18:46 | 33.63750 | -84.42724 | 1023 ft | 2 kts | 136° |
| 2026-04-30 18:46 | 33.63763 | -84.42734 | 1023 ft | 2 kts | 168° |
| 2026-04-30 18:46 | 33.63771 | -84.42735 | 1023 ft | 1 kts | 186° |
| 2026-04-30 18:47 | 33.63776 | -84.42734 | 1023 ft | 0 kts | 181° |
| 2026-04-30 18:52 | 33.63775 | -84.42734 | 1023 ft | 0 kts | 181° |
| 2026-04-30 18:52 | 33.63752 | -84.42735 | 1023 ft | 4 kts | 181° |
| 2026-04-30 18:53 | 33.63696 | -84.42731 | 1023 ft | 11 kts | 161° |
| 2026-04-30 18:53 | 33.63655 | -84.42635 | 1023 ft | 16 kts | 90° |
| 2026-04-30 18:53 | 33.63654 | -84.42477 | 1023 ft | 21 kts | 90° |
| 2026-04-30 18:53 | 33.63655 | -84.42280 | 1023 ft | 25 kts | 91° |
| 2026-04-30 18:54 | 33.63653 | -84.42046 | 1020 ft | 30 kts | 91° |
| 2026-04-30 18:54 | 33.63657 | -84.41785 | 1020 ft | 32 kts | 90° |
| 2026-04-30 18:54 | 33.63654 | -84.41505 | 1019 ft | 34 kts | 89° |
| 2026-04-30 18:54 | 33.63652 | -84.41196 | 1010 ft | 39 kts | 92° |
| 2026-04-30 18:55 | 33.63560 | -84.41036 | 1006 ft | 18 kts | 179° |
| 2026-04-30 18:55 | 33.63471 | -84.41391 | 1008 ft | 76 kts | 273° |
| 2026-04-30 18:55 | 33.63469 | -84.42323 | 1011 ft | 144 kts | 268° |
| 2026-04-30 18:56 | 33.63432 | -84.45041 | 2143 ft | 171 kts | 274° |
| 2026-04-30 18:56 | 33.63448 | -84.46439 | 2913 ft | 170 kts | 275° |
| 2026-04-30 18:56 | 33.63452 | -84.47860 | 3419 ft | 179 kts | 275° |